createdAt,value
2018-11-12T00:03:01.527Z,1.12
2018-11-12T00:07:54.820Z,1.17
2018-11-12T00:12:48.169Z,1.17
2018-11-12T00:17:41.457Z,0.85
2018-11-12T00:22:34.801Z,1.05
2018-11-12T00:27:28.074Z,0.90
2018-11-12T00:32:21.333Z,1.07
2018-11-12T00:37:14.620Z,0.80
2018-11-12T00:42:07.905Z,0.70
2018-11-12T00:47:01.315Z,0.90
2018-11-12T00:51:54.595Z,0.88
2018-11-12T00:56:47.826Z,0.98
2018-11-12T01:01:41.091Z,0.80
2018-11-12T01:06:34.443Z,1.00
2018-11-12T01:11:27.685Z,1.27
2018-11-12T01:16:21.013Z,1.10
2018-11-12T01:21:14.186Z,1.00
2018-11-12T01:26:07.567Z,0.90
2018-11-12T01:31:07.606Z,1.40
2018-11-12T01:36:01.035Z,1.12
2018-11-12T01:40:54.383Z,1.10
2018-11-12T01:45:48.721Z,1.22
2018-11-12T01:50:42.001Z,1.10
2018-11-12T01:55:35.207Z,0.80
2018-11-12T02:00:28.505Z,0.80
2018-11-12T02:05:21.789Z,1.05
2018-11-12T02:10:16.300Z,1.22
2018-11-12T02:15:12.717Z,1.42
2018-11-12T02:20:08.268Z,1.10
2018-11-12T02:25:01.521Z,1.00
2018-11-12T02:29:54.823Z,1.05
2018-11-12T02:34:48.048Z,0.80
2018-11-12T02:39:41.277Z,0.95
2018-11-12T02:44:34.535Z,0.80
2018-11-12T02:49:27.815Z,0.90
2018-11-12T02:54:21.056Z,0.95
2018-11-12T02:59:14.341Z,0.85
2018-11-12T03:04:07.713Z,1.00
2018-11-12T03:09:00.938Z,0.70
2018-11-12T03:13:54.238Z,1.10
2018-11-12T03:18:47.473Z,1.10
2018-11-12T03:23:40.703Z,1.20
2018-11-12T03:28:33.965Z,0.95
2018-11-12T03:33:27.245Z,1.10
2018-11-12T03:38:20.563Z,1.10
2018-11-12T03:43:13.818Z,1.05
2018-11-12T03:48:07.188Z,0.98
2018-11-12T03:53:00.433Z,0.90
2018-11-12T03:57:53.716Z,1.00
2018-11-12T04:02:47.056Z,1.02
2018-11-12T04:07:40.730Z,0.90
2018-11-12T04:12:33.964Z,1.00
2018-11-12T04:17:27.189Z,1.00
2018-11-12T04:22:20.548Z,1.10
2018-11-12T04:27:13.805Z,1.10
2018-11-12T04:32:07.244Z,1.22
2018-11-12T04:37:00.515Z,1.27
2018-11-12T04:41:53.791Z,1.10
2018-11-12T04:46:47.105Z,0.90
2018-11-12T04:51:40.405Z,1.07
2018-11-12T04:56:33.667Z,1.42
2018-11-12T05:01:26.933Z,1.30
2018-11-12T05:06:20.163Z,1.00
2018-11-12T05:11:13.413Z,1.40
2018-11-12T05:16:06.693Z,1.25
2018-11-12T05:20:59.985Z,1.12
2018-11-12T05:25:53.599Z,1.10
2018-11-12T05:30:46.870Z,1.00
2018-11-12T05:35:40.121Z,0.90
2018-11-12T05:40:33.380Z,1.20
2018-11-12T05:45:28.373Z,1.20
2018-11-12T05:50:24.838Z,1.40
2018-11-12T05:55:19.748Z,1.00
2018-11-12T06:00:14.634Z,1.05
2018-11-12T06:05:09.384Z,1.10
2018-11-12T06:10:02.676Z,1.22
2018-11-12T06:14:55.971Z,1.07
2018-11-12T06:19:49.173Z,1.15
2018-11-12T06:24:42.486Z,1.30
2018-11-12T06:29:35.755Z,1.00
2018-11-12T06:34:29.016Z,1.32
2018-11-12T06:39:22.269Z,1.20
2018-11-12T06:44:15.618Z,1.40
2018-11-12T06:49:08.903Z,1.17
2018-11-12T06:54:02.179Z,1.30
2018-11-12T06:58:55.463Z,1.35
2018-11-12T07:03:48.696Z,1.62
2018-11-12T07:08:41.965Z,1.60
2018-11-12T07:13:35.253Z,1.17
2018-11-12T07:18:28.483Z,1.32
2018-11-12T07:23:21.838Z,1.45
2018-11-12T07:28:16.462Z,1.60
2018-11-12T07:33:09.759Z,1.90
2018-11-12T07:38:03.139Z,1.60
2018-11-12T07:42:56.437Z,1.67
2018-11-12T07:47:50.706Z,1.80
2018-11-12T07:52:44.193Z,1.60
2018-11-12T07:57:37.448Z,1.47
2018-11-12T08:02:30.708Z,2.12
2018-11-12T08:07:23.975Z,1.80
2018-11-12T08:12:17.227Z,2.20
2018-11-12T08:17:10.485Z,2.10
2018-11-12T08:22:04.011Z,2.70
2018-11-12T08:26:57.248Z,2.50
2018-11-12T08:31:50.561Z,2.45
2018-11-12T08:36:43.870Z,2.87
2018-11-12T08:41:37.118Z,3.52
2018-11-12T08:46:30.373Z,3.47
2018-11-12T08:51:23.802Z,3.15
2018-11-12T08:56:17.724Z,2.92
2018-11-12T09:01:11.047Z,3.42
2018-11-12T09:06:04.940Z,3.08
2018-11-12T09:10:58.137Z,3.20
2018-11-12T09:15:51.463Z,3.77
2018-11-12T09:20:44.694Z,3.55
2018-11-12T09:25:38.011Z,3.22
2018-11-12T09:30:31.454Z,3.65
2018-11-12T09:35:27.830Z,2.90
2018-11-12T09:40:29.010Z,2.62
2018-11-12T09:45:22.329Z,2.95
2018-11-12T09:50:17.774Z,2.35
2018-11-12T09:55:11.877Z,2.75
2018-11-12T10:00:07.819Z,2.75
2018-11-12T10:05:02.563Z,3.00
2018-11-12T10:09:57.101Z,2.77
2018-11-12T10:14:50.084Z,3.30
2018-11-12T10:19:41.428Z,2.77
2018-11-12T10:24:36.901Z,3.58
2018-11-12T10:29:30.145Z,2.50
2018-11-12T10:34:23.399Z,2.30
2018-11-12T10:39:16.761Z,2.15
2018-11-12T10:44:10.076Z,1.60
2018-11-12T10:49:03.547Z,1.45
2018-11-12T10:53:57.037Z,1.65
2018-11-12T10:58:50.226Z,1.30
2018-11-12T11:03:49.931Z,1.52
2018-11-12T11:08:43.277Z,0.90
2018-11-12T11:13:36.626Z,1.00
2018-11-12T11:18:29.881Z,1.10
2018-11-12T11:23:23.256Z,0.80
2018-11-12T11:28:16.606Z,0.90
2018-11-12T11:33:09.911Z,0.95
2018-11-12T11:38:03.508Z,1.05
2018-11-12T11:42:56.992Z,0.85
2018-11-12T11:47:51.353Z,1.10
2018-11-12T11:52:44.581Z,0.90
2018-11-12T11:57:38.533Z,1.17
2018-11-12T12:02:31.853Z,0.90
2018-11-12T12:07:25.115Z,1.00
2018-11-12T12:12:18.706Z,1.00
2018-11-12T12:17:12.002Z,0.78
2018-11-12T12:22:05.323Z,0.80
2018-11-12T12:26:58.655Z,1.00
2018-11-12T12:31:52.661Z,0.70
2018-11-12T12:36:46.048Z,0.90
2018-11-12T12:41:39.305Z,0.70
2018-11-12T12:46:32.644Z,0.75
2018-11-12T12:51:26.058Z,1.00
2018-11-12T12:56:19.391Z,1.05
2018-11-12T13:01:12.720Z,0.80
2018-11-12T13:06:06.107Z,0.80
2018-11-12T13:10:59.390Z,0.95
2018-11-12T13:15:52.663Z,1.20
2018-11-12T13:20:45.940Z,1.30
2018-11-12T13:25:39.162Z,3.37
2018-11-12T13:30:32.408Z,2.90
2018-11-12T13:35:25.951Z,3.37
2018-11-12T13:40:21.436Z,3.90
2018-11-12T13:45:14.718Z,3.70
2018-11-12T13:50:12.779Z,4.25
2018-11-12T13:55:08.353Z,4.58
2018-11-12T14:00:01.649Z,5.30
2018-11-12T14:04:54.911Z,5.65
2018-11-12T14:09:48.316Z,5.85
2018-11-12T14:14:41.597Z,6.12
2018-11-12T14:19:34.855Z,5.85
2018-11-12T14:24:28.288Z,6.83
2018-11-12T14:29:21.603Z,6.67
2018-11-12T14:34:14.861Z,6.65
2018-11-12T14:39:10.334Z,7.72
2018-11-12T14:44:03.987Z,8.50
2018-11-12T14:48:57.503Z,7.72
2018-11-12T14:53:50.930Z,7.50
2018-11-12T14:58:44.174Z,7.80
2018-11-12T15:03:37.578Z,7.20
2018-11-12T15:08:30.831Z,7.10
2018-11-12T15:13:24.128Z,6.40
2018-11-12T15:18:17.432Z,6.62
2018-11-12T15:23:11.099Z,6.20
2018-11-12T15:28:05.141Z,5.62
2018-11-12T15:32:58.436Z,6.67
2018-11-12T15:37:52.123Z,5.30
2018-11-12T15:42:45.343Z,6.67
2018-11-12T15:47:38.835Z,6.28
2018-11-12T15:52:32.186Z,5.85
2018-11-12T15:57:25.508Z,4.70
2018-11-12T16:02:18.774Z,5.95
2018-11-12T16:07:12.076Z,5.90
2018-11-12T16:12:05.534Z,6.42
2018-11-12T16:16:58.734Z,6.08
2018-11-12T16:21:52.188Z,6.08
2018-11-12T16:26:45.597Z,5.42
2018-11-12T16:31:38.848Z,5.90
2018-11-12T16:36:32.241Z,5.10
2018-11-12T16:41:25.584Z,5.90
2018-11-12T16:46:18.935Z,5.92
2018-11-12T16:51:12.330Z,5.53
2018-11-12T16:56:05.638Z,5.70
2018-11-12T17:00:59.106Z,5.53
2018-11-12T17:05:52.435Z,5.75
2018-11-12T17:10:45.778Z,5.95
2018-11-12T17:15:39.127Z,5.53
2018-11-12T17:20:32.439Z,4.92
2018-11-12T17:25:25.924Z,7.87
2018-11-12T17:30:20.879Z,5.25
2018-11-12T17:35:15.590Z,5.03
2018-11-12T17:40:16.493Z,4.92
2018-11-12T17:45:14.242Z,5.30
2018-11-12T17:50:08.927Z,5.35
2018-11-12T17:55:02.254Z,5.30
2018-11-12T17:59:55.541Z,5.45
2018-11-12T18:04:48.841Z,5.97
2018-11-12T18:09:42.154Z,6.67
2018-11-12T18:14:35.455Z,6.62
2018-11-12T18:19:28.929Z,6.58
2018-11-12T18:24:22.216Z,7.03
2018-11-12T18:29:15.519Z,6.53
2018-11-12T18:34:08.852Z,7.60
2018-11-12T18:39:02.413Z,7.67
2018-11-12T18:43:55.743Z,7.87
2018-11-12T18:48:49.059Z,8.13
2018-11-12T18:53:42.319Z,8.40
2018-11-12T18:58:35.602Z,8.75
2018-11-12T19:03:28.912Z,9.23
2018-11-12T19:08:22.185Z,8.98
2018-11-12T19:13:15.429Z,8.98
2018-11-12T19:18:10.768Z,8.50
2018-11-12T19:23:04.391Z,10.80
2018-11-12T19:27:57.649Z,8.78
2018-11-12T19:32:50.964Z,9.28
2018-11-12T19:37:44.226Z,9.18
2018-11-12T19:42:37.511Z,10.63
2018-11-12T19:47:30.752Z,10.40
2018-11-12T19:52:24.023Z,9.53
2018-11-12T19:57:17.677Z,9.63
2018-11-12T20:02:12.262Z,10.58
2018-11-12T20:07:06.601Z,11.60
2018-11-12T20:12:00.685Z,11.50
2018-11-12T20:16:53.973Z,13.20
2018-11-12T20:21:47.404Z,12.88
2018-11-12T20:26:40.717Z,13.85
2018-11-12T20:31:33.988Z,15.05
2018-11-12T20:36:27.253Z,13.85
2018-11-12T20:41:20.509Z,14.73
2018-11-12T20:46:16.709Z,15.78
2018-11-12T20:51:10.154Z,16.55
2018-11-12T20:56:03.546Z,17.35
2018-11-12T21:00:56.979Z,16.80
2018-11-12T21:05:51.074Z,16.85
2018-11-12T21:10:44.384Z,16.15
2018-11-12T21:15:37.605Z,16.50
2018-11-12T21:20:30.870Z,17.40
2018-11-12T21:25:25.222Z,17.02
2018-11-12T21:30:22.561Z,16.35
2018-11-12T21:35:15.888Z,16.62
2018-11-12T21:40:12.799Z,18.32
2018-11-12T21:45:10.352Z,18.40
2018-11-12T21:50:04.169Z,18.67
2018-11-12T21:54:57.395Z,16.93
2018-11-12T21:59:51.400Z,17.50
2018-11-12T22:04:44.690Z,17.02
2018-11-12T22:09:40.022Z,17.17
2018-11-12T22:14:34.615Z,17.00
2018-11-12T22:19:31.983Z,16.40
2018-11-12T22:24:25.573Z,15.78
2018-11-12T22:29:19.290Z,16.05
2018-11-12T22:34:12.555Z,14.70
2018-11-12T22:39:09.277Z,11.28
2018-11-12T22:44:02.681Z,10.15
2018-11-12T22:48:55.971Z,8.80
2018-11-12T22:53:49.453Z,9.03
2018-11-12T22:58:45.354Z,8.55
2018-11-12T23:03:38.651Z,7.97
2018-11-12T23:08:31.877Z,6.42
2018-11-12T23:13:25.202Z,7.05
2018-11-12T23:18:18.433Z,6.25
2018-11-12T23:23:12.945Z,7.00
2018-11-12T23:28:06.252Z,7.33
2018-11-12T23:33:00.386Z,5.80
2018-11-12T23:37:53.648Z,6.75
2018-11-12T23:42:47.287Z,6.75
2018-11-12T23:47:40.993Z,7.00
2018-11-12T23:52:34.240Z,7.33
2018-11-12T23:57:27.496Z,7.12
